sensor_id;sensor_type;location;lat;lon;timestamp;pressure;altitude;pressure_sealevel;temperature;humidity
23339;BME280;11841;49.368;20.962;2022-11-20T00:00:11;95369.06;;;-1.92;80.86
23339;BME280;11841;49.368;20.962;2022-11-20T00:02:38;95379.38;;;-2.00;81.53
23339;BME280;11841;49.368;20.962;2022-11-20T00:05:04;95366.81;;;-2.05;81.42
23339;BME280;11841;49.368;20.962;2022-11-20T00:07:31;95367.13;;;-2.08;81.87
23339;BME280;11841;49.368;20.962;2022-11-20T00:09:57;95355.66;;;-2.05;81.40
23339;BME280;11841;49.368;20.962;2022-11-20T00:12:24;95365.06;;;-2.04;81.75
23339;BME280;11841;49.368;20.962;2022-11-20T00:14:50;95360.31;;;-2.09;81.24
23339;BME280;11841;49.368;20.962;2022-11-20T00:17:17;95363.34;;;-2.13;81.36
23339;BME280;11841;49.368;20.962;2022-11-20T00:19:43;95365.88;;;-2.21;81.29
23339;BME280;11841;49.368;20.962;2022-11-20T00:22:09;95366.16;;;-2.24;81.62
23339;BME280;11841;49.368;20.962;2022-11-20T00:24:36;95370.00;;;-2.28;81.56
23339;BME280;11841;49.368;20.962;2022-11-20T00:27:08;95371.34;;;-2.24;81.67
23339;BME280;11841;49.368;20.962;2022-11-20T00:29:34;95366.69;;;-2.21;81.80
23339;BME280;11841;49.368;20.962;2022-11-20T00:32:01;95367.22;;;-2.17;81.82
23339;BME280;11841;49.368;20.962;2022-11-20T00:34:27;95363.34;;;-2.13;81.52
23339;BME280;11841;49.368;20.962;2022-11-20T00:36:53;95363.34;;;-2.13;82.12
23339;BME280;11841;49.368;20.962;2022-11-20T00:39:20;95366.75;;;-2.13;81.79
23339;BME280;11841;49.368;20.962;2022-11-20T00:41:47;95356.22;;;-2.11;81.45
23339;BME280;11841;49.368;20.962;2022-11-20T00:44:13;95360.06;;;-2.15;82.01
23339;BME280;11841;49.368;20.962;2022-11-20T00:46:40;95368.22;;;-2.10;81.83
23339;BME280;11841;49.368;20.962;2022-11-20T00:49:06;95372.31;;;-2.08;81.40
23339;BME280;11841;49.368;20.962;2022-11-20T00:51:32;95374.63;;;-2.05;82.08
23339;BME280;11841;49.368;20.962;2022-11-20T00:53:59;95378.56;;;-2.01;82.00
23339;BME280;11841;49.368;20.962;2022-11-20T00:56:26;95373.22;;;-1.99;81.79
23339;BME280;11841;49.368;20.962;2022-11-20T00:58:52;95380.19;;;-2.00;81.68
23339;BME280;11841;49.368;20.962;2022-11-20T01:01:20;95383.25;;;-2.04;81.42
23339;BME280;11841;49.368;20.962;2022-11-20T01:03:48;95397.63;;;-2.10;81.68
23339;BME280;11841;49.368;20.962;2022-11-20T01:06:25;95392.88;;;-2.14;81.64
23339;BME280;11841;49.368;20.962;2022-11-20T01:08:53;95390.06;;;-2.21;81.80
23339;BME280;11841;49.368;20.962;2022-11-20T01:11:20;95394.72;;;-2.24;82.04
23339;BME280;11841;49.368;20.962;2022-11-20T01:13:48;95402.00;;;-2.28;81.96
23339;BME280;11841;49.368;20.962;2022-11-20T01:16:15;95409.63;;;-2.26;82.47
23339;BME280;11841;49.368;20.962;2022-11-20T01:18:43;95415.81;;;-2.27;82.48
23339;BME280;11841;49.368;20.962;2022-11-20T01:21:11;95416.38;;;-2.33;82.17
23339;BME280;11841;49.368;20.962;2022-11-20T01:23:39;95420.31;;;-2.29;82.57
23339;BME280;11841;49.368;20.962;2022-11-20T01:26:07;95408.38;;;-2.22;82.37
23339;BME280;11841;49.368;20.962;2022-11-20T01:28:34;95400.59;;;-2.22;82.12
23339;BME280;11841;49.368;20.962;2022-11-20T01:31:01;95390.72;;;-2.19;82.10
23339;BME280;11841;49.368;20.962;2022-11-20T01:33:27;95394.94;;;-2.18;82.24
23339;BME280;11841;49.368;20.962;2022-11-20T01:36:02;95381.13;;;-2.18;82.26
23339;BME280;11841;49.368;20.962;2022-11-20T01:38:29;95378.53;;;-2.18;82.32
23339;BME280;11841;49.368;20.962;2022-11-20T01:40:55;95372.78;;;-2.12;82.30
23339;BME280;11841;49.368;20.962;2022-11-20T01:43:22;95373.16;;;-2.07;82.51
23339;BME280;11841;49.368;20.962;2022-11-20T01:48:36;95357.03;;;-2.11;81.85
23339;BME280;11841;49.368;20.962;2022-11-20T01:51:04;95343.69;;;-2.16;82.22
23339;BME280;11841;49.368;20.962;2022-11-20T01:53:32;95354.38;;;-2.19;82.19
23339;BME280;11841;49.368;20.962;2022-11-20T01:56:00;95346.44;;;-2.17;82.86
23339;BME280;11841;49.368;20.962;2022-11-20T01:58:28;95362.53;;;-2.14;83.01
23339;BME280;11841;49.368;20.962;2022-11-20T02:00:56;95361.41;;;-2.11;83.22
23339;BME280;11841;49.368;20.962;2022-11-20T02:03:23;95369.19;;;-2.11;83.09
23339;BME280;11841;49.368;20.962;2022-11-20T02:05:57;95358.13;;;-2.13;82.73
23339;BME280;11841;49.368;20.962;2022-11-20T02:08:25;95360.31;;;-2.09;83.46
23339;BME280;11841;49.368;20.962;2022-11-20T02:10:51;95360.06;;;-2.15;83.43
23339;BME280;11841;49.368;20.962;2022-11-20T02:13:18;95359.28;;;-2.16;83.54
23339;BME280;11841;49.368;20.962;2022-11-20T02:16:03;95352.66;;;-2.10;83.24
23339;BME280;11841;49.368;20.962;2022-11-20T02:18:30;95357.25;;;-2.04;83.46
23339;BME280;11841;49.368;20.962;2022-11-20T02:21:02;95350.94;;;-2.02;82.94
23339;BME280;11841;49.368;20.962;2022-11-20T02:23:32;95347.19;;;-2.07;83.01
23339;BME280;11841;49.368;20.962;2022-11-20T02:26:02;95346.13;;;-2.14;82.70
23339;BME280;11841;49.368;20.962;2022-11-20T02:28:31;95336.69;;;-2.15;82.97
23339;BME280;11841;49.368;20.962;2022-11-20T02:30:58;95328.91;;;-2.15;83.04
23339;BME280;11841;49.368;20.962;2022-11-20T02:33:24;95335.06;;;-2.16;82.82
23339;BME280;11841;49.368;20.962;2022-11-20T02:35:51;95343.09;;;-2.10;83.11
23339;BME280;11841;49.368;20.962;2022-11-20T02:38:17;95342.25;;;-2.10;82.33
23339;BME280;11841;49.368;20.962;2022-11-20T02:40:44;95343.84;;;-2.17;82.41
23339;BME280;11841;49.368;20.962;2022-11-20T02:43:10;95346.72;;;-2.20;82.74
23339;BME280;11841;49.368;20.962;2022-11-20T02:45:37;95351.31;;;-2.14;82.60
23339;BME280;11841;49.368;20.962;2022-11-20T02:48:03;95342.88;;;-2.16;82.53
23339;BME280;11841;49.368;20.962;2022-11-20T02:50:31;95336.31;;;-2.20;82.57
23339;BME280;11841;49.368;20.962;2022-11-20T02:52:57;95332.47;;;-2.16;82.69
23339;BME280;11841;49.368;20.962;2022-11-20T02:55:24;95327.81;;;-2.13;82.48
23339;BME280;11841;49.368;20.962;2022-11-20T02:57:50;95322.25;;;-2.18;82.34
23339;BME280;11841;49.368;20.962;2022-11-20T03:00:17;95325.66;;;-2.17;82.61
23339;BME280;11841;49.368;20.962;2022-11-20T03:02:43;95325.34;;;-2.14;82.64
23339;BME280;11841;49.368;20.962;2022-11-20T03:05:10;95313.63;;;-2.18;82.25
23339;BME280;11841;49.368;20.962;2022-11-20T03:07:36;95317.19;;;-2.19;82.55
23339;BME280;11841;49.368;20.962;2022-11-20T03:10:03;95322.09;;;-2.16;82.18
23339;BME280;11841;49.368;20.962;2022-11-20T03:12:30;95326.97;;;-2.13;82.35
23339;BME280;11841;49.368;20.962;2022-11-20T03:14:56;95323.59;;;-2.14;82.41
23339;BME280;11841;49.368;20.962;2022-11-20T03:17:22;95317.25;;;-2.11;82.01
23339;BME280;11841;49.368;20.962;2022-11-20T03:19:49;95310.28;;;-2.11;81.84
23339;BME280;11841;49.368;20.962;2022-11-20T03:22:15;95303.91;;;-2.16;81.76
23339;BME280;11841;49.368;20.962;2022-11-20T03:24:41;95292.63;;;-2.25;81.83
23339;BME280;11841;49.368;20.962;2022-11-20T03:27:08;95297.97;;;-2.26;81.44
23339;BME280;11841;49.368;20.962;2022-11-20T03:29:35;95285.72;;;-2.34;81.62
23339;BME280;11841;49.368;20.962;2022-11-20T03:32:01;95286.19;;;-2.38;82.04
23339;BME280;11841;49.368;20.962;2022-11-20T03:34:28;95286.50;;;-2.41;82.14
23339;BME280;11841;49.368;20.962;2022-11-20T03:36:54;95293.31;;;-2.40;82.50
23339;BME280;11841;49.368;20.962;2022-11-20T03:39:21;95296.94;;;-2.33;82.30
23339;BME280;11841;49.368;20.962;2022-11-20T03:41:47;95290.50;;;-2.29;82.08
23339;BME280;11841;49.368;20.962;2022-11-20T03:44:14;95282.75;;;-2.39;81.70
23339;BME280;11841;49.368;20.962;2022-11-20T03:46:40;95278.19;;;-2.45;81.79
23339;BME280;11841;49.368;20.962;2022-11-20T03:49:06;95282.25;;;-2.42;81.97
23339;BME280;11841;49.368;20.962;2022-11-20T03:51:34;95287.31;;;-2.41;81.65
23339;BME280;11841;49.368;20.962;2022-11-20T03:54:02;95276.09;;;-2.41;81.32
23339;BME280;11841;49.368;20.962;2022-11-20T03:56:29;95273.50;;;-2.41;81.76
23339;BME280;11841;49.368;20.962;2022-11-20T03:58:56;95275.59;;;-2.45;81.25
23339;BME280;11841;49.368;20.962;2022-11-20T04:01:24;95285.22;;;-2.55;81.50
23339;BME280;11841;49.368;20.962;2022-11-20T04:03:54;95279.81;;;-2.62;81.59
23339;BME280;11841;49.368;20.962;2022-11-20T04:06:22;95272.03;;;-2.62;82.22
23339;BME280;11841;49.368;20.962;2022-11-20T04:08:49;95274.84;;;-2.55;81.92
23339;BME280;11841;49.368;20.962;2022-11-20T04:13:46;95278.13;;;-2.53;81.80
23339;BME280;11841;49.368;20.962;2022-11-20T04:16:13;95287.28;;;-2.59;81.67
23339;BME280;11841;49.368;20.962;2022-11-20T04:18:39;95282.81;;;-2.66;81.67
23339;BME280;11841;49.368;20.962;2022-11-20T04:21:05;95265.94;;;-2.70;82.00
23339;BME280;11841;49.368;20.962;2022-11-20T04:23:32;95272.59;;;-2.68;81.96
23339;BME280;11841;49.368;20.962;2022-11-20T04:26:09;95281.78;;;-2.73;81.76
23339;BME280;11841;49.368;20.962;2022-11-20T04:28:36;95290.00;;;-2.78;82.19
23339;BME280;11841;49.368;20.962;2022-11-20T04:31:07;95290.00;;;-2.78;82.35
23339;BME280;11841;49.368;20.962;2022-11-20T04:33:34;95297.34;;;-2.73;82.49
23339;BME280;11841;49.368;20.962;2022-11-20T04:36:02;95299.38;;;-2.67;82.04
23339;BME280;11841;49.368;20.962;2022-11-20T04:38:29;95301.13;;;-2.68;82.13
23339;BME280;11841;49.368;20.962;2022-11-20T04:40:57;95293.97;;;-2.74;81.71
23339;BME280;11841;49.368;20.962;2022-11-20T04:43:23;95297.22;;;-2.72;81.89
23339;BME280;11841;49.368;20.962;2022-11-20T04:45:51;95294.34;;;-2.69;82.12
23339;BME280;11841;49.368;20.962;2022-11-20T04:48:17;95296.25;;;-2.71;81.75
23339;BME280;11841;49.368;20.962;2022-11-20T04:50:44;95288.47;;;-2.71;81.82
23339;BME280;11841;49.368;20.962;2022-11-20T04:53:10;95282.31;;;-2.70;82.06
23339;BME280;11841;49.368;20.962;2022-11-20T04:55:36;95286.41;;;-2.67;81.77
23339;BME280;11841;49.368;20.962;2022-11-20T04:58:03;95276.53;;;-2.64;81.71
23339;BME280;11841;49.368;20.962;2022-11-20T05:00:29;95283.28;;;-2.71;81.42
23339;BME280;11841;49.368;20.962;2022-11-20T05:02:56;95283.19;;;-2.79;81.27
23339;BME280;11841;49.368;20.962;2022-11-20T05:05:22;95287.03;;;-2.83;81.59
23339;BME280;11841;49.368;20.962;2022-11-20T05:07:49;95282.16;;;-2.86;81.97
23339;BME280;11841;49.368;20.962;2022-11-20T05:10:15;95273.69;;;-2.88;81.99
23339;BME280;11841;49.368;20.962;2022-11-20T05:12:42;95283.91;;;-2.86;81.60
23339;BME280;11841;49.368;20.962;2022-11-20T05:15:08;95275.31;;;-2.87;81.71
23339;BME280;11841;49.368;20.962;2022-11-20T05:17:35;95268.66;;;-2.89;81.70
23339;BME280;11841;49.368;20.962;2022-11-20T05:20:01;95258.94;;;-2.87;81.73
23339;BME280;11841;49.368;20.962;2022-11-20T05:22:28;95254.56;;;-2.87;81.62
23339;BME280;11841;49.368;20.962;2022-11-20T05:24:54;95261.03;;;-2.91;81.37
23339;BME280;11841;49.368;20.962;2022-11-20T05:27:20;95257.06;;;-2.95;81.60
23339;BME280;11841;49.368;20.962;2022-11-20T05:29:47;95262.56;;;-2.98;81.72
23339;BME280;11841;49.368;20.962;2022-11-20T05:32:13;95276.22;;;-2.96;81.44
23339;BME280;11841;49.368;20.962;2022-11-20T05:34:40;95283.59;;;-3.01;81.60
23339;BME280;11841;49.368;20.962;2022-11-20T05:37:06;95296.97;;;-3.05;81.79
23339;BME280;11841;49.368;20.962;2022-11-20T05:39:32;95287.28;;;-3.03;81.64
23339;BME280;11841;49.368;20.962;2022-11-20T05:41:59;95286.88;;;-2.99;81.63
23339;BME280;11841;49.368;20.962;2022-11-20T05:44:44;95291.25;;;-2.99;81.19
23339;BME280;11841;49.368;20.962;2022-11-20T05:47:10;95295.38;;;-3.06;81.15
23339;BME280;11841;49.368;20.962;2022-11-20T05:49:37;95284.75;;;-3.13;81.23
23339;BME280;11841;49.368;20.962;2022-11-20T05:52:03;95275.47;;;-3.15;81.65
23339;BME280;11841;49.368;20.962;2022-11-20T05:54:29;95268.91;;;-3.10;81.54
23339;BME280;11841;49.368;20.962;2022-11-20T05:56:56;95266.03;;;-3.07;81.54
23339;BME280;11841;49.368;20.962;2022-11-20T05:59:22;95269.34;;;-3.14;81.04
23339;BME280;11841;49.368;20.962;2022-11-20T06:01:49;95264.56;;;-3.19;81.71
23339;BME280;11841;49.368;20.962;2022-11-20T06:04:15;95261.72;;;-3.16;81.71
23339;BME280;11841;49.368;20.962;2022-11-20T06:06:42;95268.38;;;-3.13;81.55
23339;BME280;11841;49.368;20.962;2022-11-20T06:09:08;95265.94;;;-3.15;81.81
23339;BME280;11841;49.368;20.962;2022-11-20T06:11:34;95259.78;;;-3.14;82.02
23339;BME280;11841;49.368;20.962;2022-11-20T06:14:01;95259.13;;;-3.16;81.88
23339;BME280;11841;49.368;20.962;2022-11-20T06:16:27;95262.38;;;-3.14;82.00
23339;BME280;11841;49.368;20.962;2022-11-20T06:18:54;95256.63;;;-3.08;81.92
23339;BME280;11841;49.368;20.962;2022-11-20T06:21:21;95257.97;;;-3.04;81.98
23339;BME280;11841;49.368;20.962;2022-11-20T06:23:48;95250.31;;;-3.05;81.85
23339;BME280;11841;49.368;20.962;2022-11-20T06:26:16;95256.63;;;-3.08;81.80
23339;BME280;11841;49.368;20.962;2022-11-20T06:28:43;95254.69;;;-3.06;82.12
23339;BME280;11841;49.368;20.962;2022-11-20T06:31:11;95273.91;;;-2.99;82.31
23339;BME280;11841;49.368;20.962;2022-11-20T06:33:37;95270.72;;;-2.93;81.99
23339;BME280;11841;49.368;20.962;2022-11-20T06:36:04;95262.66;;;-2.90;81.96
23339;BME280;11841;49.368;20.962;2022-11-20T06:38:36;95250.34;;;-2.88;81.81
23339;BME280;11841;49.368;20.962;2022-11-20T06:41:03;95249.91;;;-2.83;82.04
23339;BME280;11841;49.368;20.962;2022-11-20T06:43:29;95242.78;;;-2.81;81.67
23339;BME280;11841;49.368;20.962;2022-11-20T06:45:56;95243.91;;;-2.84;81.99
23339;BME280;11841;49.368;20.962;2022-11-20T06:48:23;95242.25;;;-2.85;82.12
23339;BME280;11841;49.368;20.962;2022-11-20T06:50:50;95237.38;;;-2.88;82.41
23339;BME280;11841;49.368;20.962;2022-11-20T06:53:17;95240.94;;;-2.89;82.98
23339;BME280;11841;49.368;20.962;2022-11-20T06:55:46;95244.72;;;-2.83;83.01
23339;BME280;11841;49.368;20.962;2022-11-20T06:58:13;95233.91;;;-2.79;83.03
23339;BME280;11841;49.368;20.962;2022-11-20T07:00:40;95236.50;;;-2.79;82.98
23339;BME280;11841;49.368;20.962;2022-11-20T07:03:07;95237.44;;;-2.80;82.94
23339;BME280;11841;49.368;20.962;2022-11-20T07:05:35;95242.25;;;-2.85;83.64
23339;BME280;11841;49.368;20.962;2022-11-20T07:08:02;95246.88;;;-2.79;83.60
23339;BME280;11841;49.368;20.962;2022-11-20T07:10:28;95243.69;;;-2.73;83.60
23339;BME280;11841;49.368;20.962;2022-11-20T07:12:55;95243.25;;;-2.68;83.60
23339;BME280;11841;49.368;20.962;2022-11-20T07:15:22;95233.16;;;-2.71;83.44
23339;BME280;11841;49.368;20.962;2022-11-20T07:17:48;95225.53;;;-2.73;83.45
23339;BME280;11841;49.368;20.962;2022-11-20T07:20:15;95219.66;;;-2.75;83.78
23339;BME280;11841;49.368;20.962;2022-11-20T07:22:42;95229.09;;;-2.74;83.87
23339;BME280;11841;49.368;20.962;2022-11-20T07:25:09;95233.31;;;-2.73;84.04
23339;BME280;11841;49.368;20.962;2022-11-20T07:27:36;95230.72;;;-2.73;84.33
23339;BME280;11841;49.368;20.962;2022-11-20T07:30:03;95221.69;;;-2.69;84.33
23339;BME280;11841;49.368;20.962;2022-11-20T07:32:29;95232.59;;;-2.65;84.57
23339;BME280;11841;49.368;20.962;2022-11-20T07:34:56;95223.09;;;-2.57;84.92
23339;BME280;11841;49.368;20.962;2022-11-20T07:37:22;95225.38;;;-2.54;85.15
23339;BME280;11841;49.368;20.962;2022-11-20T07:39:48;95226.72;;;-2.50;85.20
23339;BME280;11841;49.368;20.962;2022-11-20T07:42:15;95222.84;;;-2.46;85.29
23339;BME280;11841;49.368;20.962;2022-11-20T07:44:42;95225.09;;;-2.51;84.92
23339;BME280;11841;49.368;20.962;2022-11-20T07:47:08;95223.75;;;-2.55;85.94
23339;BME280;11841;49.368;20.962;2022-11-20T07:49:34;95227.09;;;-2.62;85.82
23339;BME280;11841;49.368;20.962;2022-11-20T07:52:01;95225.69;;;-2.57;85.96
23339;BME280;11841;49.368;20.962;2022-11-20T07:54:30;95217.66;;;-2.46;85.84
23339;BME280;11841;49.368;20.962;2022-11-20T07:56:56;95209.34;;;-2.31;85.91
23339;BME280;11841;49.368;20.962;2022-11-20T07:59:23;95217.03;;;-2.22;85.33
23339;BME280;11841;49.368;20.962;2022-11-20T08:01:49;95218.06;;;-2.15;85.42
23339;BME280;11841;49.368;20.962;2022-11-20T08:04:16;95222.50;;;-2.07;85.02
23339;BME280;11841;49.368;20.962;2022-11-20T08:06:42;95213.16;;;-2.00;85.04
23339;BME280;11841;49.368;20.962;2022-11-20T08:09:09;95225.47;;;-2.02;84.78
23339;BME280;11841;49.368;20.962;2022-11-20T08:11:37;95231.25;;;-2.08;84.70
23339;BME280;11841;49.368;20.962;2022-11-20T08:14:22;95235.19;;;-2.04;85.42
23339;BME280;11841;49.368;20.962;2022-11-20T08:16:49;95230.16;;;-2.06;85.71
23339;BME280;11841;49.368;20.962;2022-11-20T08:19:18;95236.44;;;-2.08;86.81
23339;BME280;11841;49.368;20.962;2022-11-20T08:21:45;95234.22;;;-2.03;86.51
23339;BME280;11841;49.368;20.962;2022-11-20T08:24:12;95241.81;;;-1.84;86.94
23339;BME280;11841;49.368;20.962;2022-11-20T08:26:38;95242.88;;;-1.69;86.14
23339;BME280;11841;49.368;20.962;2022-11-20T08:29:05;95236.56;;;-1.67;85.95
23339;BME280;11841;49.368;20.962;2022-11-20T08:31:32;95246.13;;;-1.67;85.73
23339;BME280;11841;49.368;20.962;2022-11-20T08:33:58;95254.06;;;-1.77;85.31
23339;BME280;11841;49.368;20.962;2022-11-20T08:36:25;95257.50;;;-1.94;85.61
23339;BME280;11841;49.368;20.962;2022-11-20T08:38:52;95249.19;;;-1.97;86.13
23339;BME280;11841;49.368;20.962;2022-11-20T08:41:18;95257.44;;;-2.02;86.54
23339;BME280;11841;49.368;20.962;2022-11-20T08:43:58;95252.09;;;-2.00;87.15
23339;BME280;11841;49.368;20.962;2022-11-20T08:46:26;95253.88;;;-2.01;86.80
23339;BME280;11841;49.368;20.962;2022-11-20T08:48:53;95248.53;;;-1.99;87.04
23339;BME280;11841;49.368;20.962;2022-11-20T08:51:19;95258.66;;;-1.88;87.11
23339;BME280;11841;49.368;20.962;2022-11-20T08:53:46;95257.09;;;-1.81;87.07
23339;BME280;11841;49.368;20.962;2022-11-20T08:56:14;95265.91;;;-1.74;86.43
23339;BME280;11841;49.368;20.962;2022-11-20T08:58:43;95254.09;;;-1.69;86.37
23339;BME280;11841;49.368;20.962;2022-11-20T09:01:29;95243.69;;;-1.69;86.35
23339;BME280;11841;49.368;20.962;2022-11-20T09:03:56;95235.78;;;-1.59;86.65
23339;BME280;11841;49.368;20.962;2022-11-20T09:06:23;95225.72;;;-1.54;86.38
23339;BME280;11841;49.368;20.962;2022-11-20T09:08:52;95219.63;;;-1.45;86.66
23339;BME280;11841;49.368;20.962;2022-11-20T09:11:19;95210.22;;;-1.38;86.60
23339;BME280;11841;49.368;20.962;2022-11-20T09:13:45;95207.66;;;-1.30;86.38
23339;BME280;11841;49.368;20.962;2022-11-20T09:16:12;95210.44;;;-1.24;86.58
23339;BME280;11841;49.368;20.962;2022-11-20T09:18:38;95210.28;;;-1.22;86.59
23339;BME280;11841;49.368;20.962;2022-11-20T09:21:06;95202.63;;;-1.24;86.81
23339;BME280;11841;49.368;20.962;2022-11-20T09:23:34;95205.06;;;-1.22;86.73
23339;BME280;11841;49.368;20.962;2022-11-20T09:26:02;95203.63;;;-1.16;86.67
23339;BME280;11841;49.368;20.962;2022-11-20T09:28:29;95212.28;;;-1.08;86.69
23339;BME280;11841;49.368;20.962;2022-11-20T09:30:55;95209.41;;;-0.97;87.29
23339;BME280;11841;49.368;20.962;2022-11-20T09:33:22;95214.44;;;-0.87;87.12
23339;BME280;11841;49.368;20.962;2022-11-20T09:35:48;95209.25;;;-0.79;87.07
23339;BME280;11841;49.368;20.962;2022-11-20T09:38:14;95210.91;;;-0.70;86.58
23339;BME280;11841;49.368;20.962;2022-11-20T09:40:44;95201.31;;;-0.62;86.63
23339;BME280;11841;49.368;20.962;2022-11-20T09:48:55;95204.91;;;-0.55;87.18
23339;BME280;11841;49.368;20.962;2022-11-20T09:51:46;95198.22;;;-0.49;87.55
23339;BME280;11841;49.368;20.962;2022-11-20T09:54:17;95186.34;;;-0.44;87.26
23339;BME280;11841;49.368;20.962;2022-11-20T09:56:53;95190.09;;;-0.38;87.18
23339;BME280;11841;49.368;20.962;2022-11-20T10:02:12;95181.81;;;-0.18;86.54
23339;BME280;11841;49.368;20.962;2022-11-20T10:04:43;95188.66;;;-0.09;86.59
23339;BME280;11841;49.368;20.962;2022-11-20T10:09:57;95168.91;;;0.05;86.45
23339;BME280;11841;49.368;20.962;2022-11-20T10:12:31;95159.59;;;0.11;86.69
23339;BME280;11841;49.368;20.962;2022-11-20T10:19:58;95178.78;;;0.26;86.49
23339;BME280;11841;49.368;20.962;2022-11-20T10:30:11;95179.91;;;0.31;86.20
23339;BME280;11841;49.368;20.962;2022-11-20T10:32:39;95175.88;;;0.29;87.22
23339;BME280;11841;49.368;20.962;2022-11-20T10:37:42;95158.09;;;0.32;86.48
23339;BME280;11841;49.368;20.962;2022-11-20T10:42:47;95152.88;;;0.32;86.34
23339;BME280;11841;49.368;20.962;2022-11-20T10:50:57;95145.34;;;0.45;86.55
23339;BME280;11841;49.368;20.962;2022-11-20T10:53:31;95142.16;;;0.58;86.57
23339;BME280;11841;49.368;20.962;2022-11-20T10:58:50;95131.69;;;0.74;86.37
23339;BME280;11841;49.368;20.962;2022-11-20T11:01:19;95122.72;;;0.76;86.44
23339;BME280;11841;49.368;20.962;2022-11-20T11:03:48;95123.31;;;0.78;86.07
23339;BME280;11841;49.368;20.962;2022-11-20T11:06:19;95129.72;;;0.76;86.06
23339;BME280;11841;49.368;20.962;2022-11-20T11:08:48;95130.97;;;0.80;86.31
23339;BME280;11841;49.368;20.962;2022-11-20T11:11:28;95133.59;;;0.80;86.11
23339;BME280;11841;49.368;20.962;2022-11-20T11:14:07;95127.75;;;0.78;86.69
23339;BME280;11841;49.368;20.962;2022-11-20T11:16:35;95124.97;;;0.79;86.85
23339;BME280;11841;49.368;20.962;2022-11-20T11:19:05;95122.66;;;0.84;86.95
23339;BME280;11841;49.368;20.962;2022-11-20T11:21:32;95123.25;;;0.94;87.00
23339;BME280;11841;49.368;20.962;2022-11-20T11:24:03;95119.47;;;0.97;87.28
23339;BME280;11841;49.368;20.962;2022-11-20T11:26:57;95117.84;;;0.96;87.46
23339;BME280;11841;49.368;20.962;2022-11-20T11:29:24;95110.84;;;0.96;87.75
23339;BME280;11841;49.368;20.962;2022-11-20T11:32:02;95111.59;;;1.05;87.49
23339;BME280;11841;49.368;20.962;2022-11-20T11:34:29;95105.38;;;1.06;87.29
23339;BME280;11841;49.368;20.962;2022-11-20T11:36:56;95106.50;;;1.11;87.31
23339;BME280;11841;49.368;20.962;2022-11-20T11:39:23;95100.38;;;1.19;87.23
23339;BME280;11841;49.368;20.962;2022-11-20T11:41:51;95092.63;;;1.34;87.46
23339;BME280;11841;49.368;20.962;2022-11-20T11:44:21;95097.25;;;1.46;87.86
23339;BME280;11841;49.368;20.962;2022-11-20T11:47:10;95097.47;;;1.59;87.32
23339;BME280;11841;49.368;20.962;2022-11-20T11:49:37;95099.19;;;1.67;86.83
23339;BME280;11841;49.368;20.962;2022-11-20T11:52:05;95099.19;;;1.67;86.06
23339;BME280;11841;49.368;20.962;2022-11-20T11:54:37;95105.88;;;1.69;86.47
23339;BME280;11841;49.368;20.962;2022-11-20T11:57:16;95107.88;;;1.82;86.52
23339;BME280;11841;49.368;20.962;2022-11-20T12:02:15;95101.84;;;1.96;86.27
23339;BME280;11841;49.368;20.962;2022-11-20T12:04:52;95104.19;;;2.05;86.68
23339;BME280;11841;49.368;20.962;2022-11-20T12:10:17;95100.88;;;2.11;85.52
23339;BME280;11841;49.368;20.962;2022-11-20T12:12:47;95105.19;;;2.19;85.92
23339;BME280;11841;49.368;20.962;2022-11-20T12:15:20;95100.16;;;2.17;84.86
23339;BME280;11841;49.368;20.962;2022-11-20T12:17:48;95096.28;;;2.13;85.51
23339;BME280;11841;49.368;20.962;2022-11-20T12:20:15;95099.34;;;2.17;85.96
23339;BME280;11841;49.368;20.962;2022-11-20T12:25:14;95100.06;;;2.25;85.33
23339;BME280;11841;49.368;20.962;2022-11-20T12:27:47;95090.97;;;2.21;85.25
23339;BME280;11841;49.368;20.962;2022-11-20T12:30:18;95098.16;;;2.19;85.71
23339;BME280;11841;49.368;20.962;2022-11-20T12:40:37;95085.00;;;2.13;85.02
23339;BME280;11841;49.368;20.962;2022-11-20T12:46:08;95080.50;;;2.07;85.21
23339;BME280;11841;49.368;20.962;2022-11-20T12:56:31;95082.81;;;2.31;85.02
23339;BME280;11841;49.368;20.962;2022-11-20T13:04:23;95090.31;;;2.48;84.47
23339;BME280;11841;49.368;20.962;2022-11-20T13:06:57;95080.28;;;2.52;84.11
23339;BME280;11841;49.368;20.962;2022-11-20T13:09:24;95077.22;;;2.48;84.67
23339;BME280;11841;49.368;20.962;2022-11-20T13:19:53;95060.72;;;2.63;84.58
23339;BME280;11841;49.368;20.962;2022-11-20T13:22:24;95059.31;;;2.67;84.38
23339;BME280;11841;49.368;20.962;2022-11-20T13:24:51;95051.91;;;2.70;84.10
23339;BME280;11841;49.368;20.962;2022-11-20T13:27:19;95053.38;;;2.73;84.53
23339;BME280;11841;49.368;20.962;2022-11-20T13:30:11;95037.03;;;2.71;84.49
23339;BME280;11841;49.368;20.962;2022-11-20T13:32:47;95039.41;;;2.66;84.34
23339;BME280;11841;49.368;20.962;2022-11-20T13:35:22;95044.63;;;2.66;85.08
23339;BME280;11841;49.368;20.962;2022-11-20T13:37:58;95049.88;;;2.66;84.55
23339;BME280;11841;49.368;20.962;2022-11-20T13:40:25;95044.19;;;2.62;84.73
23339;BME280;11841;49.368;20.962;2022-11-20T13:42:56;95051.59;;;2.59;84.69
23339;BME280;11841;49.368;20.962;2022-11-20T13:45:27;95060.97;;;2.53;84.78
23339;BME280;11841;49.368;20.962;2022-11-20T13:47:55;95063.97;;;2.50;85.12
23339;BME280;11841;49.368;20.962;2022-11-20T13:50:28;95068.13;;;2.44;85.46
23339;BME280;11841;49.368;20.962;2022-11-20T14:00:51;95092.59;;;2.37;85.96
23339;BME280;11841;49.368;20.962;2022-11-20T14:03:20;95099.34;;;2.31;85.96
23339;BME280;11841;49.368;20.962;2022-11-20T14:06:12;95103.50;;;2.26;86.62
23339;BME280;11841;49.368;20.962;2022-11-20T14:08:41;95097.19;;;2.20;86.66
23339;BME280;11841;49.368;20.962;2022-11-20T14:11:14;95104.41;;;2.18;86.49
23339;BME280;11841;49.368;20.962;2022-11-20T14:13:50;95103.94;;;2.15;86.77
23339;BME280;11841;49.368;20.962;2022-11-20T14:16:21;95098.25;;;2.11;86.88
23339;BME280;11841;49.368;20.962;2022-11-20T14:18:47;95108.09;;;2.09;87.04
23339;BME280;11841;49.368;20.962;2022-11-20T14:21:27;95087.53;;;2.06;86.46
23339;BME280;11841;49.368;20.962;2022-11-20T14:24:09;95087.63;;;1.98;86.93
23339;BME280;11841;49.368;20.962;2022-11-20T14:26:36;95083.56;;;1.96;86.43
23339;BME280;11841;49.368;20.962;2022-11-20T14:29:04;95085.06;;;1.90;86.28